| time (UTC) | temp C | wind direction | speed KPH | gust KPH | rain 1hr cm | rain 24hr cm | rain mn cm | humidity % | barometer mb |
| 20260510234503 | 18 | 245 | 3.2 | 4.8 | 0.00 | 0.00 | 0.00 | 75 | 1014.6 |
| 20260510234003 | 18 | 247 | 1.6 | 4.8 | 0.00 | 0.00 | 0.00 | 75 | 1014.6 |
| 20260510233503 | 18 | 244 | 0.0 | 3.2 | 0.00 | 0.00 | 0.00 | 75 | 1014.6 |
| 20260510233217 | 18 | 240 | 0.0 | 3.2 | 0.00 | 0.00 | 0.00 | 74 | 1014.5 |
| 20260510232503 | 18 | 216 | 1.6 | 4.8 | 0.00 | 0.00 | 0.00 | 74 | 1014.2 |
| 20260510232004 | 18 | 211 | 1.6 | 4.8 | 0.00 | 0.00 | 0.00 | 74 | 1014.4 |
| 20260510231504 | 18 | 222 | 0.0 | 4.8 | 0.00 | 0.00 | 0.00 | 74 | 1014.4 |
| 20260510231006 | 18 | 231 | 0.0 | 1.6 | 0.00 | 0.00 | 0.00 | 74 | 1014.8 |
| 20260510230504 | 18 | 222 | 0.0 | 3.2 | 0.00 | 0.00 | 0.00 | 73 | 1014.6 |
| 20260510230004 | 19 | 206 | 0.0 | 3.2 | 0.00 | 0.00 | 0.00 | 73 | 1014.6 |
| 20260510225504 | 19 | 289 | 1.6 | 4.8 | 0.00 | 0.00 | 0.00 | 73 | 1014.5 |
| 20260510225003 | 18 | 305 | 4.8 | 9.7 | 0.00 | 0.00 | 0.00 | 73 | 1014.4 |
| 20260510224503 | 18 | 326 | 6.4 | 11.3 | 0.00 | 0.00 | 0.00 | 73 | 1014.4 |
| 20260510224003 | 19 | 316 | 6.4 | 11.3 | 0.00 | 0.00 | 0.00 | 73 | 1014.4 |
| 20260510223503 | 19 | 285 | 3.2 | 11.3 | 0.00 | 0.00 | 0.00 | 74 | 1014.4 |
| 20260510223004 | 20 | 212 | 1.6 | 4.8 | 0.00 | 0.00 | 0.00 | 74 | 1014.4 |
| 20260510222503 | 20 | 192 | 1.6 | 6.4 | 0.00 | 0.00 | 0.00 | 73 | 1014.4 |
| 20260510222003 | 20 | 183 | 1.6 | 6.4 | 0.00 | 0.00 | 0.00 | 73 | 1014.3 |
| 20260510221504 | 20 | 168 | 1.6 | 6.4 | 0.00 | 0.00 | 0.00 | 72 | 1014.3 |
| 20260510221003 | 20 | 159 | 1.6 | 6.4 | 0.00 | 0.00 | 0.00 | 71 | 1014.2 |
| 20260510220503 | 20 | 195 | 0.0 | 3.2 | 0.00 | 0.00 | 0.00 | 70 | 1014.2 |
| 20260510220004 | 20 | 222 | 0.0 | 1.6 | 0.00 | 0.00 | 0.00 | 70 | 1014.2 |
| 20260510215503 | 20 | 223 | 0.0 | 1.6 | 0.00 | 0.00 | 0.00 | 70 | 1014.0 |
| 20260510215003 | 20 | 223 | 0.0 | 1.6 | 0.00 | 0.00 | 0.00 | 70 | 1014.1 |
| 20260510214503 | 20 | 225 | 0.0 | 1.6 | 0.00 | 0.00 | 0.00 | 70 | 1013.9 |
| 20260510214003 | 20 | 220 | 0.0 | 4.8 | 0.00 | 0.00 | 0.00 | 70 | 1013.9 |
| 20260510213503 | 20 | 216 | 1.6 | 4.8 | 0.00 | 0.00 | 0.00 | 70 | 1014.1 |
| 20260510213003 | 20 | 212 | 1.6 | 4.8 | 0.00 | 0.00 | 0.00 | 70 | 1013.8 |
| 20260510212503 | 20 | 216 | 1.6 | 4.8 | 0.00 | 0.00 | 0.00 | 70 | 1013.7 |
| 20260510212003 | 20 | 206 | 3.2 | 9.7 | 0.00 | 0.00 | 0.00 | 71 | 1014.2 |
| 20260510211503 | 20 | 192 | 3.2 | 11.3 | 0.00 | 0.00 | 0.00 | 71 | 1014.1 |
| 20260510211003 | 20 | 177 | 3.2 | 11.3 | 0.00 | 0.00 | 0.00 | 70 | 1014.1 |
| 20260510210503 | 20 | 157 | 3.2 | 9.7 | 0.00 | 0.00 | 0.00 | 68 | 1014.1 |
| 20260510210004 | 20 | 60 | 4.8 | 14.5 | 0.00 | 0.00 | 0.00 | 68 | 1013.9 |
| 20260510205503 | 20 | 349 | 3.2 | 14.5 | 0.00 | 0.00 | 0.00 | 68 | 1013.9 |
| 20260510205217 | 21 | 302 | 3.2 | 11.3 | 0.00 | 0.00 | 0.00 | 67 | 1014.0 |
| 20260510204503 | 21 | 234 | 1.6 | 4.8 | 0.00 | 0.00 | 0.00 | 66 | 1013.9 |
| 20260510204004 | 21 | 241 | 1.6 | 4.8 | 0.00 | 0.00 | 0.00 | 66 | 1013.9 |
| 20260510203503 | 20 | 223 | 1.6 | 6.4 | 0.00 | 0.00 | 0.00 | 66 | 1013.5 |
| 20260510203214 | 20 | 219 | 3.2 | 12.9 | 0.00 | 0.00 | 0.00 | 66 | 1013.6 |
| 20260510202503 | 20 | 206 | 4.8 | 16.1 | 0.00 | 0.00 | 0.00 | 68 | 1013.5 |
| 20260510202003 | 20 | 204 | 8.0 | 16.1 | 0.00 | 0.00 | 0.00 | 68 | 1013.6 |
| 20260510201718 | 21 | 206 | 8.0 | 16.1 | 0.00 | 0.00 | 0.00 | 68 | 1013.4 |
| 20260510201003 | 21 | 212 | 6.4 | 16.1 | 0.00 | 0.00 | 0.00 | 67 | 1013.4 |
| 20260510200504 | 20 | 210 | 6.4 | 14.5 | 0.00 | 0.00 | 0.00 | 67 | 1013.3 |
| 20260510200003 | 20 | 210 | 6.4 | 14.5 | 0.00 | 0.00 | 0.00 | 68 | 1013.1 |
| 20260510195506 | 20 | 215 | 4.8 | 16.1 | 0.00 | 0.00 | 0.00 | 69 | 1013.0 |
| 20260510195004 | 20 | 209 | 6.4 | 16.1 | 0.00 | 0.00 | 0.00 | 69 | 1013.1 |
| 20260510194503 | 20 | 211 | 6.4 | 22.5 | 0.00 | 0.00 | 0.00 | 69 | 1012.9 |
| 20260510194213 | 20 | 214 | 6.4 | 22.5 | 0.00 | 0.00 | 0.00 | 69 | 1013.0 |
| 20260510193504 | 20 | 218 | 4.8 | 12.9 | 0.00 | 0.00 | 0.00 | 69 | 1013.0 |
| 20260510193003 | 20 | 208 | 6.4 | 20.9 | 0.00 | 0.00 | 0.00 | 69 | 1012.8 |
| 20260510192504 | 20 | 206 | 9.7 | 24.1 | 0.00 | 0.00 | 0.00 | 69 | 1012.9 |
| 20260510192004 | 20 | 204 | 9.7 | 25.7 | 0.00 | 0.00 | 0.00 | 69 | 1012.8 |
| 20260510191504 | 20 | 198 | 9.7 | 25.7 | 0.00 | 0.00 | 0.00 | 69 | 1012.5 |
| 20260510191004 | 20 | 193 | 9.7 | 25.7 | 0.00 | 0.00 | 0.00 | 68 | 1012.6 |
| 20260510190714 | 20 | 199 | 9.7 | 29.0 | 0.00 | 0.00 | 0.00 | 68 | 1012.6 |
| 20260510190004 | 20 | 202 | 12.9 | 37.0 | 0.00 | 0.00 | 0.00 | 68 | 1012.7 |
| 20260510185715 | 20 | 203 | 11.3 | 37.0 | 0.00 | 0.00 | 0.00 | 68 | 1012.4 |
| 20260510185005 | 20 | 201 | 11.3 | 27.4 | 0.00 | 0.00 | 0.00 | 68 | 1012.4 |
| 20260510184503 | 20 | 202 | 12.9 | 33.8 | 0.00 | 0.00 | 0.00 | 68 | 1012.5 |
| 20260510184214 | 20 | 207 | 12.9 | 33.8 | 0.00 | 0.00 | 0.00 | 68 | 1012.6 |
| 20260510183503 | 20 | 205 | 9.7 | 24.1 | 0.00 | 0.00 | 0.00 | 66 | 1012.7 |
| 20260510183004 | 21 | 207 | 9.7 | 24.1 | 0.00 | 0.00 | 0.00 | 65 | 1012.5 |
| 20260510182503 | 21 | 210 | 9.7 | 24.1 | 0.00 | 0.00 | 0.00 | 64 | 1012.6 |
| 20260510182003 | 21 | 212 | 9.7 | 24.1 | 0.00 | 0.00 | 0.00 | 64 | 1012.6 |
| 20260510181503 | 21 | 205 | 11.3 | 33.8 | 0.00 | 0.00 | 0.00 | 63 | 1012.5 |
| 20260510181004 | 21 | 195 | 14.5 | 37.0 | 0.00 | 0.00 | 0.00 | 63 | 1012.5 |
| 20260510180503 | 21 | 192 | 14.5 | 38.6 | 0.00 | 0.00 | 0.00 | 63 | 1012.3 |
| 20260510180005 | 21 | 192 | 16.1 | 38.6 | 0.00 | 0.00 | 0.00 | 61 | 1012.4 |
| 20260510175503 | 21 | 197 | 14.5 | 35.4 | 0.00 | 0.00 | 0.00 | 59 | 1012.3 |
| 20260510175004 | 21 | 206 | 12.9 | 30.6 | 0.00 | 0.00 | 0.00 | 60 | 1012.4 |
| 20260510174504 | 21 | 201 | 11.3 | 29.0 | 0.00 | 0.00 | 0.00 | 59 | 1012.1 |
| 20260510174004 | 21 | 182 | 11.3 | 30.6 | 0.00 | 0.00 | 0.00 | 58 | 1012.3 |
| 20260510173504 | 22 | 193 | 12.9 | 30.6 | 0.00 | 0.00 | 0.00 | 58 | 1012.4 |
| 20260510173004 | 22 | 202 | 12.9 | 33.8 | 0.00 | 0.00 | 0.00 | 58 | 1012.2 |
| 20260510172504 | 22 | 198 | 14.5 | 33.8 | 0.00 | 0.00 | 0.00 | 60 | 1012.4 |
| 20260510172217 | 22 | 192 | 16.1 | 37.0 | 0.00 | 0.00 | 0.00 | 59 | 1012.3 |
| 20260510171503 | 22 | 195 | 12.9 | 37.0 | 0.00 | 0.00 | 0.00 | 58 | 1012.3 |
| 20260510171003 | 22 | 210 | 11.3 | 35.4 | 0.00 | 0.00 | 0.00 | 59 | 1012.4 |
| 20260510170503 | 22 | 209 | 12.9 | 35.4 | 0.00 | 0.00 | 0.00 | 59 | 1012.8 |
| 20260510170006 | 22 | 204 | 14.5 | 30.6 | 0.00 | 0.00 | 0.00 | 59 | 1012.7 |
| 20260510165503 | 21 | 208 | 16.1 | 33.8 | 0.00 | 0.00 | 0.00 | 60 | 1012.5 |
| 20260510165005 | 22 | 204 | 14.5 | 33.8 | 0.00 | 0.00 | 0.00 | 60 | 1012.7 |
| 20260510164504 | 22 | 208 | 11.3 | 30.6 | 0.00 | 0.00 | 0.00 | 59 | 1012.9 |
| 20260510164003 | 22 | 221 | 9.7 | 30.6 | 0.00 | 0.00 | 0.00 | 59 | 1012.7 |
| 20260510163509 | 22 | 215 | 9.7 | 30.6 | 0.00 | 0.00 | 0.00 | 57 | 1012.8 |
| 20260510163216 | 22 | 207 | 11.3 | 30.6 | 0.00 | 0.00 | 0.00 | 56 | 1012.9 |
| 20260510162503 | 22 | 205 | 11.3 | 29.0 | 0.00 | 0.00 | 0.00 | 59 | 1012.7 |
| 20260510162003 | 22 | 202 | 11.3 | 29.0 | 0.00 | 0.00 | 0.00 | 59 | 1013.1 |
| 20260510161504 | 22 | 196 | 9.7 | 24.1 | 0.00 | 0.00 | 0.00 | 60 | 1013.1 |
| 20260510161004 | 22 | 194 | 8.0 | 24.1 | 0.00 | 0.00 | 0.00 | 60 | 1013.1 |
| 20260510160716 | 22 | 191 | 8.0 | 29.0 | 0.00 | 0.00 | 0.00 | 60 | 1013.0 |
| 20260510160004 | 22 | 196 | 9.7 | 29.0 | 0.00 | 0.00 | 0.00 | 58 | 1013.3 |
| 20260510155504 | 22 | 206 | 9.7 | 29.0 | 0.00 | 0.00 | 0.00 | 56 | 1012.9 |
| 20260510155215 | 22 | 204 | 9.7 | 29.0 | 0.00 | 0.00 | 0.00 | 58 | 1013.0 |
| 20260510154503 | 23 | 201 | 11.3 | 29.0 | 0.00 | 0.00 | 0.00 | 57 | 1013.0 |
| 20260510154216 | 23 | 200 | 12.9 | 29.0 | 0.00 | 0.00 | 0.00 | 55 | 1013.2 |
| 20260510153714 | 22 | 197 | 12.9 | 29.0 | 0.00 | 0.00 | 0.00 | 55 | 1013.3 |
| 20260510153004 | 23 | 204 | 12.9 | 33.8 | 0.00 | 0.00 | 0.00 | 54 | 1013.2 |
| 20260510152503 | 23 | 210 | 11.3 | 33.8 | 0.00 | 0.00 | 0.00 | 53 | 1013.2 |
| 20260510152003 | 23 | 202 | 9.7 | 25.7 | 0.00 | 0.00 | 0.00 | 54 | 1013.3 |
| 20260510151503 | 23 | 199 | 8.0 | 25.7 | 0.00 | 0.00 | 0.00 | 54 | 1013.3 |
| 20260510151003 | 23 | 218 | 6.4 | 20.9 | 0.00 | 0.00 | 0.00 | 53 | 1013.3 |
| 20260510150506 | 23 | 204 | 11.3 | 29.0 | 0.00 | 0.00 | 0.00 | 53 | 1013.4 |
| 20260510150004 | 23 | 193 | 14.5 | 30.6 | 0.00 | 0.00 | 0.00 | 53 | 1013.3 |
| 20260510145718 | 23 | 196 | 16.1 | 33.8 | 0.00 | 0.00 | 0.00 | 53 | 1013.2 |
| 20260510145003 | 23 | 205 | 14.5 | 33.8 | 0.00 | 0.00 | 0.00 | 51 | 1013.3 |
| 20260510144505 | 23 | 200 | 12.9 | 33.8 | 0.00 | 0.00 | 0.00 | 52 | 1013.3 |
| 20260510144003 | 23 | 199 | 9.7 | 30.6 | 0.00 | 0.00 | 0.00 | 51 | 1013.5 |
| 20260510143503 | 23 | 200 | 12.9 | 35.4 | 0.00 | 0.00 | 0.00 | 52 | 1013.5 |
| 20260510143003 | 23 | 197 | 12.9 | 37.0 | 0.00 | 0.00 | 0.00 | 54 | 1013.7 |
| 20260510142504 | 23 | 199 | 11.3 | 37.0 | 0.00 | 0.00 | 0.00 | 52 | 1013.7 |
| 20260510142005 | 23 | 208 | 11.3 | 29.0 | 0.00 | 0.00 | 0.00 | 53 | 1013.6 |
| 20260510141504 | 23 | 201 | 11.3 | 29.0 | 0.00 | 0.00 | 0.00 | 51 | 1013.7 |
| 20260510141004 | 23 | 203 | 9.7 | 27.4 | 0.00 | 0.00 | 0.00 | 59 | 1013.7 |
| 20260510140503 | 23 | 212 | 8.0 | 27.4 | 0.00 | 0.00 | 0.00 | 59 | 1014.1 |
| 20260510140004 | 23 | 207 | 8.0 | 24.1 | 0.00 | 0.00 | 0.00 | 59 | 1014.0 |
| 20260510135503 | 23 | 205 | 8.0 | 22.5 | 0.00 | 0.00 | 0.00 | 62 | 1014.0 |
| 20260510135003 | 23 | 200 | 9.7 | 24.1 | 0.00 | 0.00 | 0.00 | 61 | 1014.0 |
| 20260510134714 | 23 | 199 | 9.7 | 25.7 | 0.00 | 0.00 | 0.00 | 61 | 1014.3 |
| 20260510134003 | 23 | 206 | 9.7 | 30.6 | 0.00 | 0.00 | 0.00 | 61 | 1014.0 |
| 20260510133506 | 23 | 198 | 9.7 | 22.5 | 0.00 | 0.00 | 0.00 | 61 | 1014.2 |
| 20260510133003 | 23 | 194 | 8.0 | 22.5 | 0.00 | 0.00 | 0.00 | 58 | 1014.0 |
| 20260510132504 | 23 | 207 | 8.0 | 29.0 | 0.00 | 0.00 | 0.00 | 62 | 1014.2 |
| 20260510132003 | 23 | 210 | 8.0 | 29.0 | 0.00 | 0.00 | 0.00 | 63 | 1014.1 |
| 20260510131503 | 23 | 200 | 9.7 | 25.7 | 0.00 | 0.00 | 0.00 | 60 | 1014.3 |
| 20260510131003 | 23 | 202 | 9.7 | 25.7 | 0.00 | 0.00 | 0.00 | 58 | 1014.2 |
| 20260510130504 | 23 | 202 | 9.7 | 24.1 | 0.00 | 0.00 | 0.00 | 57 | 1014.6 |
| 20260510130004 | 22 | 202 | 9.7 | 25.7 | 0.00 | 0.00 | 0.00 | 60 | 1014.2 |
| 20260510125503 | 22 | 200 | 12.9 | 33.8 | 0.00 | 0.00 | 0.00 | 60 | 1014.5 |
| 20260510125217 | 22 | 202 | 11.3 | 33.8 | 0.00 | 0.00 | 0.00 | 61 | 1014.4 |
| 20260510124503 | 22 | 200 | 11.3 | 30.6 | 0.00 | 0.00 | 0.00 | 64 | 1014.4 |
| 20260510124213 | 22 | 201 | 9.7 | 25.7 | 0.00 | 0.00 | 0.00 | 65 | 1014.6 |
| 20260510123503 | 23 | 206 | 8.0 | 29.0 | 0.00 | 0.00 | 0.00 | 68 | 1014.9 |
| 20260510123003 | 22 | 202 | 8.0 | 29.0 | 0.00 | 0.00 | 0.00 | 65 | 1014.9 |
| 20260510122503 | 22 | 200 | 6.4 | 16.1 | 0.00 | 0.00 | 0.00 | 68 | 1015.0 |
| 20260510122215 | 22 | 203 | 4.8 | 16.1 | 0.00 | 0.00 | 0.00 | 70 | 1014.9 |
| 20260510121503 | 22 | 203 | 6.4 | 14.5 | 0.00 | 0.00 | 0.00 | 70 | 1015.0 |
| 20260510121003 | 22 | 195 | 8.0 | 16.1 | 0.00 | 0.00 | 0.00 | 72 | 1015.0 |
| 20260510120504 | 22 | 194 | 8.0 | 20.9 | 0.00 | 0.00 | 0.00 | 70 | 1015.2 |
| 20260510120003 | 22 | 195 | 8.0 | 22.5 | 0.00 | 0.00 | 0.00 | 71 | 1015.4 |
| 20260510115504 | 21 | 203 | 8.0 | 22.5 | 0.00 | 0.00 | 0.00 | 73 | 1015.5 |
| 20260510115004 | 21 | 205 | 8.0 | 17.7 | 0.00 | 0.00 | 0.00 | 73 | 1015.3 |
| 20260510114503 | 21 | 199 | 6.4 | 17.7 | 0.00 | 0.00 | 0.00 | 73 | 1015.6 |
| 20260510114003 | 21 | 197 | 8.0 | 17.7 | 0.00 | 0.00 | 0.00 | 75 | 1015.6 |
| 20260510113503 | 21 | 200 | 8.0 | 17.7 | 0.00 | 0.00 | 0.00 | 75 | 1015.6 |
| 20260510113003 | 21 | 198 | 8.0 | 17.7 | 0.00 | 0.00 | 0.00 | 74 | 1015.6 |
| 20260510112503 | 21 | 193 | 8.0 | 20.9 | 0.00 | 0.00 | 0.00 | 73 | 1015.7 |
| 20260510112003 | 22 | 200 | 8.0 | 20.9 | 0.00 | 0.00 | 0.00 | 72 | 1015.6 |
| 20260510111503 | 22 | 201 | 6.4 | 17.7 | 0.00 | 0.00 | 0.00 | 71 | 1015.5 |
| 20260510111003 | 22 | 195 | 6.4 | 17.7 | 0.00 | 0.00 | 0.00 | 71 | 1015.8 |
| 20260510110503 | 22 | 201 | 8.0 | 20.9 | 0.00 | 0.00 | 0.00 | 71 | 1015.7 |
| 20260510110003 | 22 | 201 | 8.0 | 20.9 | 0.00 | 0.00 | 0.00 | 70 | 1015.9 |
| 20260510105504 | 22 | 207 | 8.0 | 20.9 | 0.00 | 0.00 | 0.00 | 69 | 1015.8 |
| 20260510105003 | 22 | 218 | 6.4 | 17.7 | 0.00 | 0.03 | 0.00 | 68 | 1016.0 |
| 20260510104504 | 22 | 210 | 8.0 | 17.7 | 0.00 | 0.08 | 0.00 | 69 | 1015.9 |
| 20260510104004 | 22 | 199 | 6.4 | 17.7 | 0.00 | 0.10 | 0.00 | 69 | 1016.1 |
| 20260510103504 | 22 | 200 | 4.8 | 14.5 | 0.00 | 0.10 | 0.00 | 70 | 1015.8 |
| 20260510103003 | 22 | 201 | 4.8 | 14.5 | 0.00 | 0.10 | 0.00 | 71 | 1016.0 |
| 20260510102504 | 22 | 198 | 4.8 | 14.5 | 0.00 | 0.10 | 0.00 | 70 | 1016.0 |
| 20260510102004 | 22 | 200 | 6.4 | 14.5 | 0.00 | 0.10 | 0.00 | 70 | 1016.1 |
| 20260510101503 | 22 | 206 | 4.8 | 14.5 | 0.00 | 0.13 | 0.00 | 69 | 1015.8 |
| 20260510101003 | 22 | 200 | 4.8 | 14.5 | 0.00 | 0.13 | 0.00 | 70 | 1015.7 |
| 20260510100503 | 22 | 198 | 4.8 | 16.1 | 0.00 | 0.13 | 0.00 | 71 | 1015.9 |
| 20260510100003 | 22 | 194 | 6.4 | 16.1 | 0.00 | 0.13 | 0.00 | 70 | 1015.6 |
| 20260510095503 | 21 | 175 | 8.0 | 14.5 | 0.00 | 0.13 | 0.00 | 72 | 1015.8 |
| 20260510095003 | 22 | 178 | 6.4 | 14.5 | 0.00 | 0.13 | 0.00 | 71 | 1015.6 |
| 20260510094503 | 22 | 185 | 4.8 | 12.9 | 0.00 | 0.13 | 0.00 | 70 | 1015.8 |
| 20260510094003 | 21 | 184 | 4.8 | 12.9 | 0.00 | 0.13 | 0.00 | 71 | 1015.8 |
| 20260510093503 | 22 | 191 | 4.8 | 12.9 | 0.00 | 0.13 | 0.00 | 72 | 1015.7 |
| 20260510093004 | 22 | 189 | 3.2 | 11.3 | 0.00 | 0.13 | 0.00 | 71 | 1015.5 |
| 20260510092504 | 22 | 182 | 3.2 | 11.3 | 0.00 | 0.15 | 0.00 | 70 | 1015.8 |
| 20260510092003 | 22 | 172 | 3.2 | 12.9 | 0.00 | 0.15 | 0.00 | 70 | 1015.7 |
| 20260510091504 | 21 | 166 | 4.8 | 12.9 | 0.00 | 0.15 | 0.00 | 70 | 1015.7 |
| 20260510091003 | 21 | 184 | 4.8 | 12.9 | 0.00 | 0.15 | 0.00 | 70 | 1015.6 |
| 20260510090503 | 22 | 184 | 3.2 | 11.3 | 0.00 | 0.15 | 0.00 | 71 | 1015.9 |
| 20260510090003 | 22 | 165 | 1.6 | 9.7 | 0.00 | 0.18 | 0.00 | 71 | 1015.4 |
| 20260510085716 | 22 | 171 | 1.6 | 9.7 | 0.00 | 0.18 | 0.00 | 70 | 1015.5 |
| 20260510085004 | 21 | 159 | 1.6 | 9.7 | 0.00 | 0.23 | 0.00 | 71 | 1015.3 |
| 20260510084503 | 21 | 108 | 1.6 | 9.7 | 0.00 | 0.25 | 0.00 | 73 | 1015.8 |
| 20260510084004 | 20 | 99 | 1.6 | 6.4 | 0.00 | 0.30 | 0.00 | 74 | 1015.7 |
| 20260510083504 | 21 | 181 | 1.6 | 3.2 | 0.00 | 0.38 | 0.00 | 73 | 1015.7 |
| 20260510083003 | 21 | 177 | 0.0 | 3.2 | 0.00 | 0.46 | 0.00 | 75 | 1015.9 |
| 20260510082504 | 21 | 151 | 0.0 | 3.2 | 0.00 | 0.48 | 0.00 | 76 | 1016.0 |
| 20260510082004 | 20 | 252 | 1.6 | 4.8 | 0.00 | 0.51 | 0.00 | 78 | 1015.9 |
| 20260510081503 | 20 | 339 | 1.6 | 6.4 | 0.00 | 0.61 | 0.00 | 79 | 1016.0 |
| 20260510081003 | 19 | 359 | 1.6 | 6.4 | 0.00 | 0.69 | 0.00 | 79 | 1016.0 |
| 20260510080503 | 20 | 174 | 0.0 | 3.2 | 0.00 | 0.74 | 0.00 | 78 | 1015.9 |
| 20260510080004 | 20 | 207 | 0.0 | 1.6 | 0.00 | 0.74 | 0.00 | 79 | 1016.2 |
| 20260510075503 | 20 | 205 | 0.0 | 1.6 | 0.00 | 0.76 | 0.00 | 80 | 1015.6 |
| 20260510075004 | 19 | 185 | 0.0 | 4.8 | 0.00 | 0.91 | 0.00 | 82 | 1015.9 |
| 20260510074503 | 18 | 170 | 0.0 | 4.8 | 0.00 | 1.07 | 0.00 | 83 | 1016.0 |
| 20260510074003 | 18 | 353 | 1.6 | 6.4 | 0.00 | 1.45 | 0.00 | 84 | 1015.8 |
| 20260510073507 | 18 | 339 | 1.6 | 6.4 | 0.00 | 1.50 | 0.00 | 84 | 1016.1 |
| 20260510073004 | 18 | 78 | 1.6 | 4.8 | 0.00 | 1.52 | 0.00 | 84 | 1016.0 |
| 20260510072504 | 17 | 158 | 1.6 | 4.8 | 0.00 | 1.55 | 0.00 | 85 | 1016.2 |
| 20260510072004 | 17 | 268 | 1.6 | 4.8 | 0.00 | 1.55 | 0.00 | 86 | 1015.9 |
| 20260510071504 | 17 | 283 | 1.6 | 4.8 | 0.00 | 1.55 | 0.00 | 86 | 1015.8 |
| 20260510071003 | 17 | 248 | 1.6 | 3.2 | 0.00 | 1.55 | 0.00 | 87 | 1016.4 |
| 20260510070503 | 16 | 250 | 1.6 | 3.2 | 0.00 | 1.55 | 0.00 | 88 | 1016.0 |
| 20260510070215 | 16 | 247 | 0.0 | 3.2 | 0.00 | 1.55 | 0.00 | 88 | 1015.9 |
| 20260510065718 | 17 | 251 | 0.0 | 1.6 | 0.00 | 1.55 | 0.00 | 88 | 1015.8 |
| 20260510065003 | 16 | 251 | 0.0 | 1.6 | 0.00 | 1.55 | 0.00 | 90 | 1015.9 |
| 20260510064503 | 16 | 0 | 0.0 | 0.0 | 0.00 | 1.55 | 0.00 | 90 | 1015.8 |
| 20260510064003 | 16 | 0 | 0.0 | 0.0 | 0.00 | 1.55 | 0.00 | 91 | 1015.9 |
| 20260510063503 | 16 | 247 | 0.0 | 1.6 | 0.00 | 1.55 | 0.00 | 92 | 1015.7 |
| 20260510063213 | 15 | 244 | 0.0 | 1.6 | 0.00 | 1.55 | 0.00 | 92 | 1015.8 |
| 20260510062508 | 15 | 250 | 1.6 | 3.2 | 0.00 | 1.91 | 0.00 | 92 | 1015.7 |
| 20260510062003 | 15 | 254 | 3.2 | 4.8 | 0.00 | 2.18 | 0.00 | 93 | 1015.8 |
| 20260510061503 | 14 | 264 | 3.2 | 6.4 | 0.00 | 2.29 | 0.00 | 92 | 1015.7 |
| 20260510061003 | 14 | 286 | 1.6 | 6.4 | 0.00 | 2.34 | 0.00 | 92 | 1015.8 |
| 20260510060503 | 14 | 261 | 1.6 | 3.2 | 0.00 | 2.36 | 0.00 | 93 | 1015.6 |
| 20260510060003 | 14 | 254 | 1.6 | 3.2 | 0.00 | 2.36 | 0.00 | 93 | 1015.8 |
| 20260510055503 | 14 | 252 | 1.6 | 3.2 | 0.00 | 2.39 | 0.00 | 93 | 1015.5 |
| 20260510055003 | 14 | 243 | 0.0 | 3.2 | 0.00 | 2.51 | 0.00 | 93 | 1015.4 |
| 20260510054504 | 14 | 0 | 0.0 | 0.0 | 0.00 | 2.51 | 0.00 | 93 | 1015.6 |
| 20260510054003 | 14 | 243 | 0.0 | 1.6 | 0.00 | 2.54 | 0.00 | 93 | 1015.5 |
| 20260510053503 | 13 | 268 | 1.6 | 3.2 | 0.00 | 2.59 | 0.00 | 93 | 1015.4 |
| 20260510053003 | 13 | 272 | 1.6 | 3.2 | 0.00 | 2.69 | 0.00 | 93 | 1015.4 |
| 20260510052503 | 13 | 278 | 1.6 | 3.2 | 0.00 | 2.82 | 0.00 | 93 | 1015.5 |
| 20260510052004 | 13 | 289 | 1.6 | 4.8 | 0.00 | 2.84 | 0.00 | 93 | 1015.2 |
| 20260510051503 | 13 | 326 | 3.2 | 6.4 | 0.00 | 3.45 | 0.00 | 93 | 1015.3 |
| 20260510051003 | 14 | 327 | 1.6 | 6.4 | 0.00 | 3.94 | 0.00 | 93 | 1015.1 |
| 20260510050503 | 14 | 278 | 0.0 | 3.2 | 0.00 | 3.94 | 0.00 | 93 | 1015.3 |
| 20260510050003 | 14 | 259 | 0.0 | 1.6 | 0.00 | 3.94 | 0.00 | 93 | 1015.1 |
| 20260510045503 | 14 | 286 | 1.6 | 4.8 | 0.00 | 3.94 | 0.00 | 93 | 1015.2 |
| 20260510045003 | 14 | 287 | 3.2 | 4.8 | 0.00 | 3.94 | 0.00 | 93 | 1015.2 |
| 20260510044503 | 14 | 274 | 3.2 | 4.8 | 0.00 | 3.94 | 0.00 | 93 | 1015.2 |
| 20260510044003 | 14 | 267 | 1.6 | 4.8 | 0.00 | 3.94 | 0.00 | 93 | 1015.2 |
| 20260510043504 | 14 | 250 | 0.0 | 1.6 | 0.00 | 3.94 | 0.00 | 93 | 1015.3 |
| 20260510043004 | 14 | 253 | 0.0 | 3.2 | 0.00 | 3.94 | 0.00 | 93 | 1015.3 |
| 20260510042503 | 14 | 249 | 1.6 | 3.2 | 0.00 | 3.94 | 0.00 | 93 | 1015.2 |
| 20260510042004 | 14 | 249 | 0.0 | 3.2 | 0.00 | 3.94 | 0.00 | 92 | 1015.3 |
| 20260510041503 | 14 | 252 | 0.0 | 1.6 | 0.00 | 3.94 | 0.00 | 92 | 1015.2 |
| 20260510041003 | 14 | 246 | 0.0 | 3.2 | 0.00 | 3.94 | 0.00 | 92 | 1015.0 |
| 20260510040504 | 14 | 245 | 0.0 | 3.2 | 0.00 | 3.94 | 0.00 | 92 | 1015.1 |
| 20260510040003 | 14 | 239 | 0.0 | 1.6 | 0.00 | 3.94 | 0.00 | 92 | 1014.9 |
| 20260510035503 | 14 | 0 | 0.0 | 0.0 | 0.00 | 3.94 | 0.00 | 92 | 1015.2 |
| 20260510035213 | 14 | 0 | 0.0 | 0.0 | 0.00 | 3.94 | 0.00 | 92 | 1015.3 |
| 20260510034716 | 14 | 0 | 0.0 | 0.0 | 0.00 | 3.94 | 0.00 | 92 | 1015.1 |
| 20260510034004 | 14 | 249 | 1.6 | 3.2 | 0.00 | 3.94 | 0.00 | 92 | 1015.1 |
| 20260510033503 | 14 | 251 | 1.6 | 3.2 | 0.00 | 3.94 | 0.00 | 92 | 1015.1 |
| 20260510033003 | 14 | 250 | 1.6 | 3.2 | 0.00 | 3.94 | 0.00 | 92 | 1015.0 |
| 20260510032504 | 14 | 252 | 1.6 | 3.2 | 0.00 | 3.94 | 0.00 | 92 | 1015.0 |
| 20260510032004 | 14 | 258 | 0.0 | 1.6 | 0.00 | 3.94 | 0.00 | 92 | 1015.1 |
| 20260510031503 | 14 | 270 | 0.0 | 1.6 | 0.00 | 3.94 | 0.00 | 91 | 1014.8 |
| 20260510031216 | 14 | 0 | 0.0 | 0.0 | 0.00 | 3.94 | 0.00 | 91 | 1015.0 |
| 20260510030503 | 14 | 255 | 0.0 | 1.6 | 0.00 | 3.94 | 0.00 | 91 | 1014.9 |
| 20260510030004 | 14 | 255 | 0.0 | 1.6 | 0.00 | 3.94 | 0.00 | 91 | 1015.0 |
| 20260510025505 | 14 | 247 | 0.0 | 3.2 | 0.00 | 3.94 | 0.00 | 91 | 1015.1 |
| 20260510025003 | 15 | 268 | 1.6 | 4.8 | 0.00 | 3.94 | 0.00 | 91 | 1015.0 |
| 20260510024503 | 15 | 275 | 1.6 | 4.8 | 0.00 | 3.94 | 0.00 | 91 | 1015.1 |
| 20260510024004 | 15 | 277 | 3.2 | 4.8 | 0.00 | 3.94 | 0.00 | 91 | 1014.9 |
| 20260510023504 | 15 | 289 | 4.8 | 6.4 | 0.00 | 3.94 | 0.00 | 91 | 1014.9 |
| 20260510023003 | 15 | 297 | 4.8 | 6.4 | 0.00 | 3.94 | 0.00 | 91 | 1015.0 |
| 20260510022504 | 15 | 294 | 4.8 | 6.4 | 0.00 | 3.94 | 0.00 | 91 | 1014.7 |
| 20260510022003 | 15 | 289 | 4.8 | 6.4 | 0.00 | 3.94 | 0.00 | 91 | 1014.8 |
| 20260510021719 | 15 | 282 | 3.2 | 4.8 | 0.00 | 3.94 | 0.00 | 91 | 1014.8 |
| 20260510021004 | 15 | 270 | 1.6 | 4.8 | 0.00 | 3.94 | 0.00 | 91 | 1014.7 |
| 20260510020503 | 15 | 290 | 1.6 | 6.4 | 0.00 | 3.94 | 0.00 | 91 | 1014.6 |
| 20260510020218 | 15 | 292 | 3.2 | 6.4 | 0.00 | 3.94 | 0.00 | 91 | 1014.7 |
| 20260510015504 | 15 | 286 | 3.2 | 6.4 | 0.00 | 3.94 | 0.00 | 91 | 1014.8 |
| 20260510015003 | 15 | 292 | 3.2 | 6.4 | 0.00 | 3.94 | 0.00 | 91 | 1014.7 |
| 20260510014717 | 15 | 297 | 3.2 | 6.4 | 0.00 | 3.94 | 0.00 | 91 | 1014.8 |
| 20260510014003 | 15 | 317 | 3.2 | 6.4 | 0.00 | 3.94 | 0.00 | 91 | 1015.0 |
| 20260510013503 | 15 | 321 | 1.6 | 6.4 | 0.00 | 3.94 | 0.00 | 91 | 1014.7 |
| 20260510013004 | 15 | 301 | 1.6 | 4.8 | 0.00 | 3.94 | 0.00 | 91 | 1014.8 |
| 20260510012503 | 15 | 299 | 3.2 | 4.8 | 0.00 | 3.94 | 0.00 | 91 | 1014.7 |
| 20260510012004 | 15 | 289 | 3.2 | 4.8 | 0.00 | 3.94 | 0.00 | 91 | 1014.9 |
| 20260510011504 | 15 | 285 | 3.2 | 4.8 | 0.00 | 3.94 | 0.00 | 91 | 1014.8 |
| 20260510011003 | 16 | 279 | 1.6 | 3.2 | 0.00 | 3.94 | 0.00 | 91 | 1014.8 |
| 20260510010503 | 16 | 274 | 1.6 | 3.2 | 0.00 | 3.94 | 0.00 | 90 | 1015.0 |
| 20260510010003 | 16 | 262 | 1.6 | 3.2 | 0.00 | 3.94 | 0.00 | 90 | 1014.9 |
| 20260510005504 | 16 | 257 | 3.2 | 6.4 | 0.00 | 3.94 | 0.00 | 90 | 1014.8 |
| 20260510005004 | 16 | 254 | 3.2 | 6.4 | 0.00 | 3.94 | 0.00 | 90 | 1015.0 |
| 20260510004712 | 16 | 252 | 3.2 | 6.4 | 0.00 | 3.94 | 0.00 | 90 | 1014.8 |
| 20260510004003 | 16 | 243 | 1.6 | 4.8 | 0.00 | 3.94 | 0.00 | 89 | 1014.9 |
| 20260510003713 | 17 | 240 | 1.6 | 4.8 | 0.00 | 3.94 | 0.00 | 89 | 1014.9 |
| 20260510003004 | 17 | 214 | 0.0 | 4.8 | 0.00 | 3.94 | 0.00 | 89 | 1015.1 |
| 20260510002504 | 17 | 185 | 0.0 | 4.8 | 0.00 | 3.94 | 0.00 | 89 | 1014.9 |
| 20260510002217 | 17 | 196 | 0.0 | 4.8 | 0.00 | 3.94 | 0.00 | 89 | 1014.8 |
| 20260510001503 | 17 | 206 | 0.0 | 3.2 | 0.00 | 3.94 | 0.00 | 89 | 1014.8 |
| 20260510001003 | 17 | 211 | 1.6 | 3.2 | 0.00 | 3.94 | 0.00 | 88 | 1015.1 |
| 20260510000504 | 16 | 222 | 1.6 | 3.2 | 0.00 | 3.94 | 0.00 | 88 | 1015.1 |
| 20260510000005 | 17 | 223 | 0.0 | 3.2 | 0.00 | 3.94 | 0.00 | 88 | 1015.4 |
| 20260509235503 | 17 | 218 | 1.6 | 3.2 | 0.00 | 3.94 | 0.00 | 88 | 1015.3 |
| 20260509235215 | 17 | 218 | 0.0 | 3.2 | 0.00 | 3.94 | 0.00 | 88 | 1015.1 |